sensor_id;sensor_type;location;lat;lon;timestamp;pressure;altitude;pressure_sealevel;temperature;humidity
58761;BME280;44529;47.464;19.014;2023-04-15T00:02:54;99202.91;;;5.85;100.00
58761;BME280;44529;47.464;19.014;2023-04-15T00:05:57;99206.88;;;5.88;100.00
58761;BME280;44529;47.464;19.014;2023-04-15T00:09:00;99207.97;;;5.87;100.00
58761;BME280;44529;47.464;19.014;2023-04-15T00:12:04;99218.97;;;5.99;100.00
58761;BME280;44529;47.464;19.014;2023-04-15T00:15:07;99212.16;;;5.93;100.00
58761;BME280;44529;47.464;19.014;2023-04-15T00:18:10;99214.44;;;6.08;100.00
58761;BME280;44529;47.464;19.014;2023-04-15T00:21:12;99213.03;;;6.11;100.00
58761;BME280;44529;47.464;19.014;2023-04-15T00:24:15;99210.94;;;5.99;100.00
58761;BME280;44529;47.464;19.014;2023-04-15T00:27:17;99210.66;;;5.87;100.00
58761;BME280;44529;47.464;19.014;2023-04-15T00:30:19;99209.69;;;5.83;100.00
58761;BME280;44529;47.464;19.014;2023-04-15T00:33:22;99212.16;;;5.93;100.00
58761;BME280;44529;47.464;19.014;2023-04-15T00:36:25;99203.47;;;5.96;100.00
58761;BME280;44529;47.464;19.014;2023-04-15T00:39:27;99202.50;;;5.92;100.00
58761;BME280;44529;47.464;19.014;2023-04-15T00:42:30;99207.75;;;5.97;100.00
58761;BME280;44529;47.464;19.014;2023-04-15T00:45:32;99204.94;;;6.02;100.00
58761;BME280;44529;47.464;19.014;2023-04-15T00:48:35;99207.81;;;6.06;100.00
58761;BME280;44529;47.464;19.014;2023-04-15T00:51:38;99204.81;;;6.07;100.00
58761;BME280;44529;47.464;19.014;2023-04-15T00:54:41;99208.78;;;6.10;100.00
58761;BME280;44529;47.464;19.014;2023-04-15T00:57:43;99198.91;;;5.96;100.00
58761;BME280;44529;47.464;19.014;2023-04-15T01:00:46;99197.00;;;6.19;100.00
58761;BME280;44529;47.464;19.014;2023-04-15T01:03:49;99192.91;;;6.22;100.00
58761;BME280;44529;47.464;19.014;2023-04-15T01:06:52;99197.38;;;6.35;100.00
58761;BME280;44529;47.464;19.014;2023-04-15T01:09:54;99195.00;;;6.34;100.00
58761;BME280;44529;47.464;19.014;2023-04-15T01:12:58;99197.94;;;6.23;100.00
58761;BME280;44529;47.464;19.014;2023-04-15T01:16:00;99187.56;;;6.31;100.00
58761;BME280;44529;47.464;19.014;2023-04-15T01:19:09;99195.00;;;6.34;100.00
58761;BME280;44529;47.464;19.014;2023-04-15T01:22:11;99184.87;;;6.31;100.00
58761;BME280;44529;47.464;19.014;2023-04-15T01:25:17;99191.00;;;6.22;100.00
58761;BME280;44529;47.464;19.014;2023-04-15T01:28:21;99197.00;;;6.19;100.00
58761;BME280;44529;47.464;19.014;2023-04-15T01:31:23;99193.34;;;6.15;100.00
58761;BME280;44529;47.464;19.014;2023-04-15T01:34:25;99198.25;;;6.22;100.00
58761;BME280;44529;47.464;19.014;2023-04-15T01:37:28;99198.44;;;6.26;100.00
58761;BME280;44529;47.464;19.014;2023-04-15T01:40:31;99196.13;;;6.33;100.00
58761;BME280;44529;47.464;19.014;2023-04-15T01:43:34;99202.16;;;6.38;100.00
58761;BME280;44529;47.464;19.014;2023-04-15T01:46:38;99198.03;;;6.41;100.00
58761;BME280;44529;47.464;19.014;2023-04-15T01:49:40;99204.16;;;6.33;100.00
58761;BME280;44529;47.464;19.014;2023-04-15T01:52:42;99198.66;;;6.38;100.00
58761;BME280;44529;47.464;19.014;2023-04-15T01:55:45;99198.34;;;6.39;100.00
58761;BME280;44529;47.464;19.014;2023-04-15T01:58:49;99197.72;;;6.42;100.00
58761;BME280;44529;47.464;19.014;2023-04-15T02:01:51;99208.16;;;6.44;100.00
58761;BME280;44529;47.464;19.014;2023-04-15T02:04:54;99207.53;;;6.47;100.00
58761;BME280;44529;47.464;19.014;2023-04-15T02:07:56;99211.50;;;6.49;100.00
58761;BME280;44529;47.464;19.014;2023-04-15T02:10:59;99204.72;;;6.52;100.00
58761;BME280;44529;47.464;19.014;2023-04-15T02:14:02;99207.69;;;6.42;100.00
58761;BME280;44529;47.464;19.014;2023-04-15T02:17:08;99200.59;;;6.46;100.00
58761;BME280;44529;47.464;19.014;2023-04-15T02:20:10;99211.47;;;6.41;100.00
58761;BME280;44529;47.464;19.014;2023-04-15T02:23:13;99221.09;;;6.42;100.00
58761;BME280;44529;47.464;19.014;2023-04-15T02:26:18;99214.16;;;6.41;100.00
58761;BME280;44529;47.464;19.014;2023-04-15T02:29:21;99209.56;;;6.41;100.00
58761;BME280;44529;47.464;19.014;2023-04-15T02:32:24;99211.16;;;6.42;100.00
58761;BME280;44529;47.464;19.014;2023-04-15T02:35:28;99216.84;;;6.41;100.00
58761;BME280;44529;47.464;19.014;2023-04-15T02:38:31;99210.34;;;6.42;100.00
58761;BME280;44529;47.464;19.014;2023-04-15T02:41:33;99223.00;;;6.41;100.00
58761;BME280;44529;47.464;19.014;2023-04-15T02:44:37;99224.44;;;6.47;100.00
58761;BME280;44529;47.464;19.014;2023-04-15T02:47:40;99218.94;;;6.53;100.00
58761;BME280;44529;47.464;19.014;2023-04-15T02:50:42;99215.94;;;6.54;100.00
58761;BME280;44529;47.464;19.014;2023-04-15T02:53:46;99210.91;;;6.61;100.00
58761;BME280;44529;47.464;19.014;2023-04-15T02:56:49;99208.06;;;6.58;100.00
58761;BME280;44529;47.464;19.014;2023-04-15T02:59:52;99212.16;;;6.55;100.00
58761;BME280;44529;47.464;19.014;2023-04-15T03:03:00;99207.44;;;6.61;100.00
58761;BME280;44529;47.464;19.014;2023-04-15T03:06:03;99204.28;;;6.59;100.00
58761;BME280;44529;47.464;19.014;2023-04-15T03:09:05;99208.69;;;6.55;100.00
58761;BME280;44529;47.464;19.014;2023-04-15T03:12:09;99213.59;;;6.61;100.00
58761;BME280;44529;47.464;19.014;2023-04-15T03:15:11;99215.81;;;6.59;100.00
58761;BME280;44529;47.464;19.014;2023-04-15T03:18:14;99209.53;;;6.64;100.00
58761;BME280;44529;47.464;19.014;2023-04-15T03:21:17;99208.56;;;6.68;100.00
58761;BME280;44529;47.464;19.014;2023-04-15T03:24:22;99208.06;;;6.58;100.00
58761;BME280;44529;47.464;19.014;2023-04-15T03:27:25;99203.66;;;6.62;100.00
58761;BME280;44529;47.464;19.014;2023-04-15T03:30:28;99204.44;;;6.62;100.00
58761;BME280;44529;47.464;19.014;2023-04-15T03:33:31;99215.50;;;6.61;100.00
58761;BME280;44529;47.464;19.014;2023-04-15T03:36:33;99210.44;;;6.59;100.00
58761;BME280;44529;47.464;19.014;2023-04-15T03:39:35;99202.25;;;6.64;100.00
58761;BME280;44529;47.464;19.014;2023-04-15T03:42:38;99197.03;;;6.68;100.00
58761;BME280;44529;47.464;19.014;2023-04-15T03:45:40;99206.84;;;6.72;100.00
58761;BME280;44529;47.464;19.014;2023-04-15T03:48:42;99203.84;;;6.74;100.00
58761;BME280;44529;47.464;19.014;2023-04-15T03:51:45;99209.34;;;6.69;100.00
58761;BME280;44529;47.464;19.014;2023-04-15T03:54:47;99203.84;;;6.74;100.00
58761;BME280;44529;47.464;19.014;2023-04-15T03:57:49;99204.78;;;6.69;100.00
58761;BME280;44529;47.464;19.014;2023-04-15T04:00:52;99197.66;;;6.65;100.00
58761;BME280;44529;47.464;19.014;2023-04-15T04:03:56;99202.69;;;6.58;100.00
58761;BME280;44529;47.464;19.014;2023-04-15T04:06:58;99200.16;;;6.61;100.00
58761;BME280;44529;47.464;19.014;2023-04-15T04:10:01;99202.41;;;6.68;100.00
58761;BME280;44529;47.464;19.014;2023-04-15T04:13:04;99203.19;;;6.68;100.00
58761;BME280;44529;47.464;19.014;2023-04-15T04:16:07;99209.69;;;6.67;100.00
58761;BME280;44529;47.464;19.014;2023-04-15T04:19:09;99206.66;;;6.69;100.00
58761;BME280;44529;47.464;19.014;2023-04-15T04:22:11;99206.53;;;6.74;100.00
58761;BME280;44529;47.464;19.014;2023-04-15T04:25:14;99202.44;;;6.76;100.00
58761;BME280;44529;47.464;19.014;2023-04-15T04:28:16;99204.31;;;6.76;100.00
58761;BME280;44529;47.464;19.014;2023-04-15T04:31:18;99206.09;;;6.81;100.00
58761;BME280;44529;47.464;19.014;2023-04-15T04:34:21;99206.41;;;6.88;100.00
58761;BME280;44529;47.464;19.014;2023-04-15T04:37:23;99206.88;;;6.81;100.00
58761;BME280;44529;47.464;19.014;2023-04-15T04:40:26;99207.50;;;6.78;100.00
58761;BME280;44529;47.464;19.014;2023-04-15T04:43:28;99205.16;;;6.85;100.00
58761;BME280;44529;47.464;19.014;2023-04-15T04:46:30;99205.16;;;6.85;100.00
58761;BME280;44529;47.464;19.014;2023-04-15T04:49:33;99213.38;;;6.89;100.00
58761;BME280;44529;47.464;19.014;2023-04-15T04:52:35;99211.97;;;6.91;100.00
58761;BME280;44529;47.464;19.014;2023-04-15T04:55:37;99216.87;;;6.98;100.00
58761;BME280;44529;47.464;19.014;2023-04-15T04:58:40;99209.28;;;7.00;100.00
58761;BME280;44529;47.464;19.014;2023-04-15T05:01:42;99214.22;;;7.06;100.00
58761;BME280;44529;47.464;19.014;2023-04-15T05:04:45;99212.16;;;7.12;100.00
58761;BME280;44529;47.464;19.014;2023-04-15T05:07:47;99209.19;;;7.22;100.00
58761;BME280;44529;47.464;19.014;2023-04-15T05:10:51;99209.97;;;7.31;100.00
58761;BME280;44529;47.464;19.014;2023-04-15T05:13:54;99213.00;;;7.39;100.00
58761;BME280;44529;47.464;19.014;2023-04-15T05:16:56;99217.25;;;7.40;100.00
58761;BME280;44529;47.464;19.014;2023-04-15T05:19:59;99213.63;;;7.44;100.00
58761;BME280;44529;47.464;19.014;2023-04-15T05:23:02;99219.00;;;7.53;100.00
58761;BME280;44529;47.464;19.014;2023-04-15T05:26:04;99215.53;;;7.52;100.00
58761;BME280;44529;47.464;19.014;2023-04-15T05:29:07;99218.72;;;7.54;100.00
58761;BME280;44529;47.464;19.014;2023-04-15T05:32:09;99219.00;;;7.53;100.00
58761;BME280;44529;47.464;19.014;2023-04-15T05:35:12;99224.56;;;7.56;100.00
58761;BME280;44529;47.464;19.014;2023-04-15T05:38:14;99220.75;;;7.57;100.00
58761;BME280;44529;47.464;19.014;2023-04-15T05:41:16;99229.78;;;7.62;100.00
58761;BME280;44529;47.464;19.014;2023-04-15T05:44:20;99231.69;;;7.70;100.00
58761;BME280;44529;47.464;19.014;2023-04-15T05:47:23;99232.94;;;7.64;100.00
58761;BME280;44529;47.464;19.014;2023-04-15T05:50:25;99235.78;;;7.76;100.00
58761;BME280;44529;47.464;19.014;2023-04-15T05:53:28;99231.97;;;7.85;100.00
58761;BME280;44529;47.464;19.014;2023-04-15T05:56:30;99243.06;;;7.84;100.00
58761;BME280;44529;47.464;19.014;2023-04-15T05:59:32;99231.19;;;7.85;100.00
58761;BME280;44529;47.464;19.014;2023-04-15T06:02:35;99240.38;;;7.93;100.00
58761;BME280;44529;47.464;19.014;2023-04-15T06:05:37;99241.31;;;7.97;100.00
58761;BME280;44529;47.464;19.014;2023-04-15T06:08:40;99249.53;;;8.09;100.00
58761;BME280;44529;47.464;19.014;2023-04-15T06:11:42;99256.34;;;7.98;100.00
58761;BME280;44529;47.464;19.014;2023-04-15T06:14:44;99251.16;;;7.93;100.00
58761;BME280;44529;47.464;19.014;2023-04-15T06:17:47;99253.84;;;7.93;100.00
58761;BME280;44529;47.464;19.014;2023-04-15T06:20:49;99262.34;;;8.03;100.00
58761;BME280;44529;47.464;19.014;2023-04-15T06:23:52;99252.38;;;8.04;100.00
58761;BME280;44529;47.464;19.014;2023-04-15T06:26:55;99249.22;;;8.19;100.00
58761;BME280;44529;47.464;19.014;2023-04-15T06:29:57;99248.72;;;8.26;100.00
58761;BME280;44529;47.464;19.014;2023-04-15T06:32:59;99256.47;;;8.27;100.00
58761;BME280;44529;47.464;19.014;2023-04-15T06:36:02;99260.41;;;8.30;100.00
58761;BME280;44529;47.464;19.014;2023-04-15T06:39:04;99256.28;;;8.50;100.00
58761;BME280;44529;47.464;19.014;2023-04-15T06:42:07;99262.44;;;8.59;100.00
58761;BME280;44529;47.464;19.014;2023-04-15T06:45:09;99261.16;;;8.56;100.00
58761;BME280;44529;47.464;19.014;2023-04-15T06:48:12;99269.41;;;8.60;100.00
58761;BME280;44529;47.464;19.014;2023-04-15T06:51:15;99270.06;;;8.57;100.00
58761;BME280;44529;47.464;19.014;2023-04-15T06:54:18;99267.97;;;8.62;100.00
58761;BME280;44529;47.464;19.014;2023-04-15T06:57:20;99269.06;;;8.70;100.00
58761;BME280;44529;47.464;19.014;2023-04-15T07:00:22;99273.97;;;8.77;100.00
58761;BME280;44529;47.464;19.014;2023-04-15T07:03:24;99272.84;;;8.78;100.00
58761;BME280;44529;47.464;19.014;2023-04-15T07:06:27;99275.31;;;8.91;100.00
58761;BME280;44529;47.464;19.014;2023-04-15T07:09:29;99263.34;;;9.10;100.00
58761;BME280;44529;47.464;19.014;2023-04-15T07:12:32;99265.66;;;9.20;99.60
58761;BME280;44529;47.464;19.014;2023-04-15T07:15:34;99269.19;;;9.12;99.28
58761;BME280;44529;47.464;19.014;2023-04-15T07:18:37;99278.78;;;9.30;99.29
58761;BME280;44529;47.464;19.014;2023-04-15T07:21:39;99278.44;;;9.32;95.21
58761;BME280;44529;47.464;19.014;2023-04-15T07:24:43;99273.28;;;9.47;97.37
58761;BME280;44529;47.464;19.014;2023-04-15T07:27:45;99276.06;;;9.60;100.00
58761;BME280;44529;47.464;19.014;2023-04-15T07:30:47;99278.09;;;9.63;97.69
58761;BME280;44529;47.464;19.014;2023-04-15T07:33:50;99278.34;;;9.49;91.59
58761;BME280;44529;47.464;19.014;2023-04-15T07:36:52;99287.50;;;9.57;91.72
58761;BME280;44529;47.464;19.014;2023-04-15T07:39:54;99276.53;;;9.53;92.52
58761;BME280;44529;47.464;19.014;2023-04-15T07:42:57;99275.31;;;9.50;95.48
58761;BME280;44529;47.464;19.014;2023-04-15T07:45:59;99282.28;;;9.52;93.88
58761;BME280;44529;47.464;19.014;2023-04-15T07:49:02;99276.50;;;9.62;94.09
58761;BME280;44529;47.464;19.014;2023-04-15T07:52:04;99281.66;;;9.75;92.63
58761;BME280;44529;47.464;19.014;2023-04-15T07:55:08;99281.41;;;10.22;87.79
58761;BME280;44529;47.464;19.014;2023-04-15T07:58:10;99273.94;;;10.40;87.51
58761;BME280;44529;47.464;19.014;2023-04-15T08:01:12;99273.41;;;10.47;89.57
58761;BME280;44529;47.464;19.014;2023-04-15T08:04:15;99279.72;;;10.51;84.97
58761;BME280;44529;47.464;19.014;2023-04-15T08:07:18;99282.63;;;10.46;83.08
58761;BME280;44529;47.464;19.014;2023-04-15T08:10:20;99282.97;;;10.44;82.77
58761;BME280;44529;47.464;19.014;2023-04-15T08:13:23;99282.78;;;10.62;81.93
58761;BME280;44529;47.464;19.014;2023-04-15T08:16:25;99289.00;;;10.87;81.04
58761;BME280;44529;47.464;19.014;2023-04-15T08:19:29;99291.84;;;11.15;79.21
58761;BME280;44529;47.464;19.014;2023-04-15T08:22:32;99292.50;;;10.99;81.53
58761;BME280;44529;47.464;19.014;2023-04-15T08:25:34;99293.06;;;10.80;83.30
58761;BME280;44529;47.464;19.014;2023-04-15T08:28:38;99299.44;;;10.51;82.37
58761;BME280;44529;47.464;19.014;2023-04-15T08:31:40;99302.44;;;10.38;82.28
58761;BME280;44529;47.464;19.014;2023-04-15T08:34:43;99304.91;;;10.22;83.50
58761;BME280;44529;47.464;19.014;2023-04-15T08:37:45;99312.41;;;10.25;84.26
58761;BME280;44529;47.464;19.014;2023-04-15T08:40:48;99307.63;;;10.22;82.05
58761;BME280;44529;47.464;19.014;2023-04-15T08:44:11;99313.72;;;10.52;82.62
58761;BME280;44529;47.464;19.014;2023-04-15T08:47:16;99307.97;;;11.11;79.98
58761;BME280;44529;47.464;19.014;2023-04-15T08:50:23;99308.31;;;11.34;76.57
58761;BME280;44529;47.464;19.014;2023-04-15T08:53:28;99318.44;;;11.37;76.12
58761;BME280;44529;47.464;19.014;2023-04-15T08:56:31;99311.81;;;11.34;75.79
58761;BME280;44529;47.464;19.014;2023-04-15T08:59:34;99309.88;;;11.23;74.02
58761;BME280;44529;47.464;19.014;2023-04-15T09:02:37;99311.59;;;11.27;76.01
58761;BME280;44529;47.464;19.014;2023-04-15T09:05:40;99317.34;;;11.01;73.51
58761;BME280;44529;47.464;19.014;2023-04-15T09:08:43;99314.94;;;11.00;76.91
58761;BME280;44529;47.464;19.014;2023-04-15T09:11:46;99319.47;;;10.96;77.16
58761;BME280;44529;47.464;19.014;2023-04-15T09:14:48;99319.38;;;11.29;77.92
58761;BME280;44529;47.464;19.014;2023-04-15T09:17:51;99310.22;;;11.33;76.02
58761;BME280;44529;47.464;19.014;2023-04-15T09:20:53;99318.22;;;11.18;76.86
58761;BME280;44529;47.464;19.014;2023-04-15T09:23:58;99318.44;;;11.00;77.77
58761;BME280;44529;47.464;19.014;2023-04-15T09:27:01;99328.03;;;11.10;79.69
58761;BME280;44529;47.464;19.014;2023-04-15T09:30:07;99329.50;;;11.20;83.49
58761;BME280;44529;47.464;19.014;2023-04-15T09:33:13;99323.75;;;11.21;84.30
58761;BME280;44529;47.464;19.014;2023-04-15T09:36:15;99329.50;;;10.95;83.58
58761;BME280;44529;47.464;19.014;2023-04-15T09:39:18;99324.31;;;11.15;85.96
58761;BME280;44529;47.464;19.014;2023-04-15T09:42:20;99322.50;;;11.31;83.59
58761;BME280;44529;47.464;19.014;2023-04-15T09:45:25;99327.25;;;11.34;82.42
58761;BME280;44529;47.464;19.014;2023-04-15T09:48:31;99317.78;;;11.28;80.89
58761;BME280;44529;47.464;19.014;2023-04-15T09:51:36;99326.88;;;10.99;77.09
58761;BME280;44529;47.464;19.014;2023-04-15T09:54:39;99322.50;;;11.06;78.90
58761;BME280;44529;47.464;19.014;2023-04-15T09:57:41;99335.94;;;11.15;82.45
58761;BME280;44529;47.464;19.014;2023-04-15T10:00:46;99334.25;;;11.23;81.14
58761;BME280;44529;47.464;19.014;2023-04-15T10:03:50;99332.88;;;11.17;81.88
58761;BME280;44529;47.464;19.014;2023-04-15T10:06:53;99329.38;;;11.04;78.39
58761;BME280;44529;47.464;19.014;2023-04-15T10:09:56;99335.72;;;11.08;80.26
58761;BME280;44529;47.464;19.014;2023-04-15T10:13:00;99334.56;;;11.09;80.87
58761;BME280;44529;47.464;19.014;2023-04-15T10:16:30;99339.84;;;11.05;82.63
58761;BME280;44529;47.464;19.014;2023-04-15T10:19:36;99346.16;;;10.97;83.26
58761;BME280;44529;47.464;19.014;2023-04-15T10:22:39;99343.44;;;10.85;82.47
58761;BME280;44529;47.464;19.014;2023-04-15T10:25:42;99342.28;;;10.74;82.62
58761;BME280;44529;47.464;19.014;2023-04-15T10:28:45;99348.72;;;10.81;86.31
58761;BME280;44529;47.464;19.014;2023-04-15T10:31:50;99350.66;;;10.93;81.26
58761;BME280;44529;47.464;19.014;2023-04-15T10:34:54;99349.09;;;11.04;80.49
58761;BME280;44529;47.464;19.014;2023-04-15T10:37:56;99346.19;;;11.22;81.36
58761;BME280;44529;47.464;19.014;2023-04-15T10:44:15;99350.25;;;11.03;79.50
58761;BME280;44529;47.464;19.014;2023-04-15T10:47:19;99358.88;;;10.84;83.59
58761;BME280;44529;47.464;19.014;2023-04-15T10:50:25;99371.56;;;10.72;87.24
58761;BME280;44529;47.464;19.014;2023-04-15T10:53:30;99360.87;;;10.75;86.58
58761;BME280;44529;47.464;19.014;2023-04-15T10:56:32;99365.28;;;10.80;89.46
58761;BME280;44529;47.464;19.014;2023-04-15T10:59:58;99367.28;;;10.71;88.90
58761;BME280;44529;47.464;19.014;2023-04-15T11:03:08;99367.19;;;10.79;85.65
58761;BME280;44529;47.464;19.014;2023-04-15T11:06:11;99371.16;;;10.82;87.49
58761;BME280;44529;47.464;19.014;2023-04-15T11:09:33;99375.09;;;10.84;85.89
58761;BME280;44529;47.464;19.014;2023-04-15T11:12:36;99373.63;;;10.87;84.30
58761;BME280;44529;47.464;19.014;2023-04-15T11:15:39;99375.19;;;10.76;85.94
58761;BME280;44529;47.464;19.014;2023-04-15T11:18:53;99374.75;;;10.86;87.88
58761;BME280;44529;47.464;19.014;2023-04-15T11:21:56;99372.50;;;10.88;85.25
58761;BME280;44529;47.464;19.014;2023-04-15T11:24:58;99384.28;;;11.04;83.81
58761;BME280;44529;47.464;19.014;2023-04-15T11:28:01;99372.78;;;11.20;85.81
58761;BME280;44529;47.464;19.014;2023-04-15T11:31:09;99367.94;;;11.25;86.49
58761;BME280;44529;47.464;19.014;2023-04-15T11:34:21;99370.75;;;11.17;84.17
58761;BME280;44529;47.464;19.014;2023-04-15T11:37:28;99367.34;;;11.07;84.75
58761;BME280;44529;47.464;19.014;2023-04-15T11:40:30;99372.12;;;11.23;82.52
58761;BME280;44529;47.464;19.014;2023-04-15T11:43:34;99374.72;;;11.44;84.55
58761;BME280;44529;47.464;19.014;2023-04-15T11:46:36;99375.06;;;11.30;80.28
58761;BME280;44529;47.464;19.014;2023-04-15T11:49:39;99377.78;;;11.30;81.50
58761;BME280;44529;47.464;19.014;2023-04-15T11:52:56;99367.72;;;11.30;82.40
58761;BME280;44529;47.464;19.014;2023-04-15T11:56:00;99375.06;;;11.30;81.93
58761;BME280;44529;47.464;19.014;2023-04-15T11:59:02;99378.56;;;11.30;80.54
58761;BME280;44529;47.464;19.014;2023-04-15T12:02:12;99379.12;;;11.24;80.04
58761;BME280;44529;47.464;19.014;2023-04-15T12:05:15;99378.34;;;11.35;82.46
58761;BME280;44529;47.464;19.014;2023-04-15T12:08:17;99375.06;;;11.42;81.55
58761;BME280;44529;47.464;19.014;2023-04-15T12:14:30;99379.22;;;11.76;81.41
58761;BME280;44529;47.464;19.014;2023-04-15T12:17:33;99388.03;;;11.61;78.41
58761;BME280;44529;47.464;19.014;2023-04-15T12:20:53;99387.69;;;11.62;76.58
58761;BME280;44529;47.464;19.014;2023-04-15T12:23:56;99386.91;;;11.74;77.76
58761;BME280;44529;47.464;19.014;2023-04-15T12:27:03;99380.81;;;11.65;80.08
58761;BME280;44529;47.464;19.014;2023-04-15T12:30:07;99383.41;;;11.61;77.69
58761;BME280;44529;47.464;19.014;2023-04-15T12:33:09;99379.56;;;11.75;75.96
58761;BME280;44529;47.464;19.014;2023-04-15T12:36:13;99384.53;;;11.85;76.70
58761;BME280;44529;47.464;19.014;2023-04-15T12:39:15;99388.03;;;11.73;77.07
58761;BME280;44529;47.464;19.014;2023-04-15T12:42:17;99384.97;;;11.75;77.56
58761;BME280;44529;47.464;19.014;2023-04-15T12:45:20;99388.12;;;11.64;78.30
58761;BME280;44529;47.464;19.014;2023-04-15T12:48:23;99389.63;;;11.50;77.75
58761;BME280;44529;47.464;19.014;2023-04-15T12:51:25;99394.22;;;11.25;79.41
58761;BME280;44529;47.464;19.014;2023-04-15T12:54:29;99396.59;;;11.26;78.61
58761;BME280;44529;47.464;19.014;2023-04-15T12:57:32;99392.88;;;11.31;80.15
58761;BME280;44529;47.464;19.014;2023-04-15T13:00:34;99404.28;;;11.49;79.76
58761;BME280;44529;47.464;19.014;2023-04-15T13:03:37;99398.53;;;11.62;81.24
58761;BME280;44529;47.464;19.014;2023-04-15T13:06:40;99398.97;;;11.77;79.84
58761;BME280;44529;47.464;19.014;2023-04-15T13:09:42;99403.94;;;11.50;78.47
58761;BME280;44529;47.464;19.014;2023-04-15T13:12:45;99397.75;;;11.50;78.24
58761;BME280;44529;47.464;19.014;2023-04-15T13:15:47;99403.28;;;11.53;78.58
58761;BME280;44529;47.464;19.014;2023-04-15T13:18:50;99406.78;;;11.54;78.25
58761;BME280;44529;47.464;19.014;2023-04-15T13:21:52;99402.81;;;11.51;76.98
58761;BME280;44529;47.464;19.014;2023-04-15T13:24:55;99404.16;;;11.45;77.52
58761;BME280;44529;47.464;19.014;2023-04-15T13:27:57;99405.97;;;11.41;78.63
58761;BME280;44529;47.464;19.014;2023-04-15T13:31:00;99406.41;;;11.31;77.99
58761;BME280;44529;47.464;19.014;2023-04-15T13:34:02;99410.25;;;11.42;78.55
58761;BME280;44529;47.464;19.014;2023-04-15T13:37:06;99409.25;;;11.47;79.42
58761;BME280;44529;47.464;19.014;2023-04-15T13:40:09;99413.66;;;11.63;78.65
58761;BME280;44529;47.464;19.014;2023-04-15T13:43:12;99414.66;;;11.71;78.10
58761;BME280;44529;47.464;19.014;2023-04-15T13:46:14;99416.25;;;11.60;77.75
58761;BME280;44529;47.464;19.014;2023-04-15T13:49:16;99419.06;;;11.63;78.30
58761;BME280;44529;47.464;19.014;2023-04-15T13:52:19;99415.56;;;11.63;76.72
58761;BME280;44529;47.464;19.014;2023-04-15T13:55:21;99417.25;;;11.68;79.49
58761;BME280;44529;47.464;19.014;2023-04-15T13:58:27;99416.47;;;11.67;80.10
58761;BME280;44529;47.464;19.014;2023-04-15T14:01:29;99421.09;;;11.66;77.90
58761;BME280;44529;47.464;19.014;2023-04-15T14:04:32;99426.41;;;11.75;78.84
58761;BME280;44529;47.464;19.014;2023-04-15T14:07:35;99425.16;;;11.73;78.66
58761;BME280;44529;47.464;19.014;2023-04-15T14:10:37;99428.97;;;11.72;77.08
58761;BME280;44529;47.464;19.014;2023-04-15T14:13:40;99427.31;;;11.79;75.87
58761;BME280;44529;47.464;19.014;2023-04-15T14:16:42;99428.56;;;11.82;76.39
58761;BME280;44529;47.464;19.014;2023-04-15T14:19:45;99435.31;;;11.76;75.81
58761;BME280;44529;47.464;19.014;2023-04-15T14:22:47;99439.50;;;11.61;76.29
58761;BME280;44529;47.464;19.014;2023-04-15T14:25:50;99439.81;;;11.47;75.54
58761;BME280;44529;47.464;19.014;2023-04-15T14:28:53;99433.84;;;11.42;77.35
58761;BME280;44529;47.464;19.014;2023-04-15T14:31:55;99451.87;;;11.37;78.04
58761;BME280;44529;47.464;19.014;2023-04-15T14:35:13;99443.41;;;11.39;76.84
58761;BME280;44529;47.464;19.014;2023-04-15T14:38:16;99450.41;;;11.40;76.65
58761;BME280;44529;47.464;19.014;2023-04-15T14:41:18;99441.16;;;11.41;76.37
58761;BME280;44529;47.464;19.014;2023-04-15T14:44:21;99445.56;;;11.46;78.02
58761;BME280;44529;47.464;19.014;2023-04-15T14:47:23;99457.50;;;11.45;79.73
58761;BME280;44529;47.464;19.014;2023-04-15T14:50:25;99457.28;;;11.37;80.97
58761;BME280;44529;47.464;19.014;2023-04-15T14:53:28;99458.19;;;11.42;80.98
58761;BME280;44529;47.464;19.014;2023-04-15T14:56:30;99457.16;;;11.46;80.99
58761;BME280;44529;47.464;19.014;2023-04-15T14:59:33;99450.53;;;11.44;80.73
58761;BME280;44529;47.464;19.014;2023-04-15T15:02:35;99454.56;;;11.37;81.62
58761;BME280;44529;47.464;19.014;2023-04-15T15:05:43;99453.34;;;11.35;80.45
58761;BME280;44529;47.464;19.014;2023-04-15T15:08:46;99461.47;;;11.35;78.77
58761;BME280;44529;47.464;19.014;2023-04-15T15:11:48;99461.91;;;11.37;81.57
58761;BME280;44529;47.464;19.014;2023-04-15T15:14:50;99467.75;;;11.39;79.92
58761;BME280;44529;47.464;19.014;2023-04-15T15:17:53;99471.16;;;11.36;78.04
58761;BME280;44529;47.464;19.014;2023-04-15T15:20:55;99473.72;;;11.32;77.12
58761;BME280;44529;47.464;19.014;2023-04-15T15:23:58;99473.81;;;11.24;78.85
58761;BME280;44529;47.464;19.014;2023-04-15T15:27:01;99478.56;;;11.27;78.76
58761;BME280;44529;47.464;19.014;2023-04-15T15:30:04;99482.28;;;11.22;80.43
58761;BME280;44529;47.464;19.014;2023-04-15T15:33:08;99486.22;;;11.25;79.25
58761;BME280;44529;47.464;19.014;2023-04-15T15:36:10;99486.22;;;11.25;79.22
58761;BME280;44529;47.464;19.014;2023-04-15T15:39:13;99490.50;;;11.26;80.37
58761;BME280;44529;47.464;19.014;2023-04-15T15:42:17;99496.03;;;11.17;80.13
58761;BME280;44529;47.464;19.014;2023-04-15T15:45:19;99502.91;;;11.15;81.75
58761;BME280;44529;47.464;19.014;2023-04-15T15:48:22;99509.66;;;11.08;82.75
58761;BME280;44529;47.464;19.014;2023-04-15T15:51:24;99521.91;;;11.06;85.09
58761;BME280;44529;47.464;19.014;2023-04-15T15:54:28;99524.75;;;11.09;84.73
58761;BME280;44529;47.464;19.014;2023-04-15T15:57:30;99529.56;;;11.04;85.95
58761;BME280;44529;47.464;19.014;2023-04-15T16:00:33;99527.78;;;10.87;88.13
58761;BME280;44529;47.464;19.014;2023-04-15T16:03:36;99533.81;;;10.72;91.81
58761;BME280;44529;47.464;19.014;2023-04-15T16:06:38;99542.69;;;10.51;96.17